sensor_id;sensor_type;location;lat;lon;timestamp;P1;durP1;ratioP1;P2;durP2;ratioP2
36441;SDS011;73131;50.820;16.274;2024-02-23T00:00:20;2.25;;;0.90;;
36441;SDS011;73131;50.820;16.274;2024-02-23T00:03:42;1.33;;;0.98;;
36441;SDS011;73131;50.820;16.274;2024-02-23T00:06:42;1.42;;;0.80;;
36441;SDS011;73131;50.820;16.274;2024-02-23T00:09:44;1.92;;;1.20;;
36441;SDS011;73131;50.820;16.274;2024-02-23T00:12:45;2.88;;;1.63;;
36441;SDS011;73131;50.820;16.274;2024-02-23T00:15:48;1.77;;;0.90;;
36441;SDS011;73131;50.820;16.274;2024-02-23T00:18:49;1.85;;;1.30;;
36441;SDS011;73131;50.820;16.274;2024-02-23T00:21:50;1.67;;;0.80;;
36441;SDS011;73131;50.820;16.274;2024-02-23T00:24:52;2.08;;;0.90;;
36441;SDS011;73131;50.820;16.274;2024-02-23T00:27:56;3.00;;;1.85;;
36441;SDS011;73131;50.820;16.274;2024-02-23T00:30:59;1.30;;;0.80;;
36441;SDS011;73131;50.820;16.274;2024-02-23T00:34:01;1.17;;;0.95;;
36441;SDS011;73131;50.820;16.274;2024-02-23T00:37:01;1.92;;;0.75;;
36441;SDS011;73131;50.820;16.274;2024-02-23T00:40:06;2.83;;;1.65;;
36441;SDS011;73131;50.820;16.274;2024-02-23T00:43:07;1.77;;;1.10;;
36441;SDS011;73131;50.820;16.274;2024-02-23T00:46:11;1.50;;;0.82;;
36441;SDS011;73131;50.820;16.274;2024-02-23T00:49:12;2.05;;;1.00;;
36441;SDS011;73131;50.820;16.274;2024-02-23T00:52:13;1.88;;;0.95;;
36441;SDS011;73131;50.820;16.274;2024-02-23T00:55:14;2.25;;;0.77;;
36441;SDS011;73131;50.820;16.274;2024-02-23T00:58:18;1.55;;;1.00;;
36441;SDS011;73131;50.820;16.274;2024-02-23T01:01:19;1.23;;;0.98;;
36441;SDS011;73131;50.820;16.274;2024-02-23T01:04:22;2.38;;;1.00;;
36441;SDS011;73131;50.820;16.274;2024-02-23T01:07:24;3.85;;;1.50;;
36441;SDS011;73131;50.820;16.274;2024-02-23T01:10:25;3.97;;;1.88;;
36441;SDS011;73131;50.820;16.274;2024-02-23T01:13:28;4.90;;;2.13;;
36441;SDS011;73131;50.820;16.274;2024-02-23T01:16:30;3.50;;;2.50;;
36441;SDS011;73131;50.820;16.274;2024-02-23T01:19:32;3.63;;;2.15;;
36441;SDS011;73131;50.820;16.274;2024-02-23T01:22:34;4.45;;;2.55;;
36441;SDS011;73131;50.820;16.274;2024-02-23T01:25:34;5.88;;;3.05;;
36441;SDS011;73131;50.820;16.274;2024-02-23T01:28:38;4.38;;;2.70;;
36441;SDS011;73131;50.820;16.274;2024-02-23T01:31:41;6.18;;;4.43;;
36441;SDS011;73131;50.820;16.274;2024-02-23T01:34:42;5.25;;;3.67;;
36441;SDS011;73131;50.820;16.274;2024-02-23T01:37:43;6.53;;;3.78;;
36441;SDS011;73131;50.820;16.274;2024-02-23T01:40:49;7.32;;;4.35;;
36441;SDS011;73131;50.820;16.274;2024-02-23T01:43:50;5.05;;;4.05;;
36441;SDS011;73131;50.820;16.274;2024-02-23T01:46:51;5.80;;;4.40;;
36441;SDS011;73131;50.820;16.274;2024-02-23T01:49:54;6.32;;;4.13;;
36441;SDS011;73131;50.820;16.274;2024-02-23T01:53:00;5.82;;;3.92;;
36441;SDS011;73131;50.820;16.274;2024-02-23T01:56:02;6.30;;;4.47;;
36441;SDS011;73131;50.820;16.274;2024-02-23T01:59:04;5.53;;;3.53;;
36441;SDS011;73131;50.820;16.274;2024-02-23T02:02:09;6.97;;;3.97;;
36441;SDS011;73131;50.820;16.274;2024-02-23T02:05:13;6.93;;;4.45;;
36441;SDS011;73131;50.820;16.274;2024-02-23T02:08:19;5.85;;;3.33;;
36441;SDS011;73131;50.820;16.274;2024-02-23T02:11:20;7.57;;;3.55;;
36441;SDS011;73131;50.820;16.274;2024-02-23T02:14:21;4.13;;;3.22;;
36441;SDS011;73131;50.820;16.274;2024-02-23T02:20:32;6.65;;;3.22;;
36441;SDS011;73131;50.820;16.274;2024-02-23T02:23:33;5.10;;;2.88;;
36441;SDS011;73131;50.820;16.274;2024-02-23T02:26:34;5.05;;;2.75;;
36441;SDS011;73131;50.820;16.274;2024-02-23T02:29:39;4.85;;;2.35;;
36441;SDS011;73131;50.820;16.274;2024-02-23T02:32:40;4.45;;;2.55;;
36441;SDS011;73131;50.820;16.274;2024-02-23T02:35:41;5.13;;;3.53;;
36441;SDS011;73131;50.820;16.274;2024-02-23T02:38:42;4.95;;;2.67;;
36441;SDS011;73131;50.820;16.274;2024-02-23T02:41:43;4.57;;;3.00;;
36441;SDS011;73131;50.820;16.274;2024-02-23T02:44:47;5.40;;;3.10;;
36441;SDS011;73131;50.820;16.274;2024-02-23T02:47:50;4.65;;;2.80;;
36441;SDS011;73131;50.820;16.274;2024-02-23T02:50:51;3.72;;;2.38;;
36441;SDS011;73131;50.820;16.274;2024-02-23T02:53:52;3.67;;;2.10;;
36441;SDS011;73131;50.820;16.274;2024-02-23T02:56:53;3.67;;;2.40;;
36441;SDS011;73131;50.820;16.274;2024-02-23T02:59:54;4.80;;;2.80;;
36441;SDS011;73131;50.820;16.274;2024-02-23T03:02:58;3.45;;;2.00;;
36441;SDS011;73131;50.820;16.274;2024-02-23T03:05:59;3.88;;;2.47;;
36441;SDS011;73131;50.820;16.274;2024-02-23T03:09:00;6.65;;;3.15;;
36441;SDS011;73131;50.820;16.274;2024-02-23T03:12:01;3.95;;;2.90;;
36441;SDS011;73131;50.820;16.274;2024-02-23T03:15:03;5.20;;;2.97;;
36441;SDS011;73131;50.820;16.274;2024-02-23T03:18:06;4.72;;;2.85;;
36441;SDS011;73131;50.820;16.274;2024-02-23T03:21:09;3.13;;;2.10;;
36441;SDS011;73131;50.820;16.274;2024-02-23T03:24:17;4.30;;;2.88;;
36441;SDS011;73131;50.820;16.274;2024-02-23T03:27:20;4.07;;;2.75;;
36441;SDS011;73131;50.820;16.274;2024-02-23T03:30:27;3.95;;;2.80;;
36441;SDS011;73131;50.820;16.274;2024-02-23T03:33:29;4.63;;;2.75;;
36441;SDS011;73131;50.820;16.274;2024-02-23T03:36:30;3.03;;;2.28;;
36441;SDS011;73131;50.820;16.274;2024-02-23T03:39:31;3.13;;;2.60;;
36441;SDS011;73131;50.820;16.274;2024-02-23T03:42:33;5.35;;;3.60;;
36441;SDS011;73131;50.820;16.274;2024-02-23T03:45:34;4.47;;;3.00;;
36441;SDS011;73131;50.820;16.274;2024-02-23T03:48:35;5.05;;;3.25;;
36441;SDS011;73131;50.820;16.274;2024-02-23T03:51:36;4.85;;;2.67;;
36441;SDS011;73131;50.820;16.274;2024-02-23T03:54:39;4.35;;;3.13;;
36441;SDS011;73131;50.820;16.274;2024-02-23T03:57:40;4.53;;;3.33;;
36441;SDS011;73131;50.820;16.274;2024-02-23T04:00:42;3.63;;;2.90;;
36441;SDS011;73131;50.820;16.274;2024-02-23T04:03:43;4.13;;;3.00;;
36441;SDS011;73131;50.820;16.274;2024-02-23T04:06:45;5.18;;;3.05;;
36441;SDS011;73131;50.820;16.274;2024-02-23T04:09:45;4.60;;;2.78;;
36441;SDS011;73131;50.820;16.274;2024-02-23T04:12:52;4.00;;;2.90;;
36441;SDS011;73131;50.820;16.274;2024-02-23T04:15:53;39.40;;;20.98;;
36441;SDS011;73131;50.820;16.274;2024-02-23T04:18:54;69.65;;;34.80;;
36441;SDS011;73131;50.820;16.274;2024-02-23T04:21:56;20.23;;;12.05;;
36441;SDS011;73131;50.820;16.274;2024-02-23T04:24:57;3.90;;;3.03;;
36441;SDS011;73131;50.820;16.274;2024-02-23T04:27:58;3.80;;;2.83;;
36441;SDS011;73131;50.820;16.274;2024-02-23T04:30:59;3.15;;;2.22;;
36441;SDS011;73131;50.820;16.274;2024-02-23T04:34:03;3.50;;;2.40;;
36441;SDS011;73131;50.820;16.274;2024-02-23T04:37:04;3.78;;;1.83;;
36441;SDS011;73131;50.820;16.274;2024-02-23T04:40:05;3.40;;;2.38;;
36441;SDS011;73131;50.820;16.274;2024-02-23T04:43:10;2.58;;;1.95;;
36441;SDS011;73131;50.820;16.274;2024-02-23T04:46:11;4.00;;;2.42;;
36441;SDS011;73131;50.820;16.274;2024-02-23T04:49:13;3.25;;;2.00;;
36441;SDS011;73131;50.820;16.274;2024-02-23T04:52:14;3.33;;;2.08;;
36441;SDS011;73131;50.820;16.274;2024-02-23T04:55:17;3.20;;;2.03;;
36441;SDS011;73131;50.820;16.274;2024-02-23T04:58:18;3.22;;;2.00;;
36441;SDS011;73131;50.820;16.274;2024-02-23T05:01:22;2.97;;;1.98;;
36441;SDS011;73131;50.820;16.274;2024-02-23T05:04:23;2.67;;;1.98;;
36441;SDS011;73131;50.820;16.274;2024-02-23T05:07:24;3.83;;;2.22;;
36441;SDS011;73131;50.820;16.274;2024-02-23T05:10:25;2.33;;;2.10;;
36441;SDS011;73131;50.820;16.274;2024-02-23T05:13:29;4.68;;;2.22;;
36441;SDS011;73131;50.820;16.274;2024-02-23T05:16:33;3.78;;;2.35;;
36441;SDS011;73131;50.820;16.274;2024-02-23T05:19:34;2.45;;;1.88;;
36441;SDS011;73131;50.820;16.274;2024-02-23T05:22:38;3.72;;;2.75;;
36441;SDS011;73131;50.820;16.274;2024-02-23T05:25:42;4.65;;;2.22;;
36441;SDS011;73131;50.820;16.274;2024-02-23T05:28:43;2.88;;;2.00;;
36441;SDS011;73131;50.820;16.274;2024-02-23T05:31:48;2.40;;;1.48;;
36441;SDS011;73131;50.820;16.274;2024-02-23T05:34:51;2.35;;;1.70;;
36441;SDS011;73131;50.820;16.274;2024-02-23T05:37:54;2.17;;;1.58;;
36441;SDS011;73131;50.820;16.274;2024-02-23T05:40:59;3.45;;;1.80;;
36441;SDS011;73131;50.820;16.274;2024-02-23T05:44:02;2.88;;;2.25;;
36441;SDS011;73131;50.820;16.274;2024-02-23T05:47:05;2.28;;;1.25;;
36441;SDS011;73131;50.820;16.274;2024-02-23T05:50:12;3.08;;;1.40;;
36441;SDS011;73131;50.820;16.274;2024-02-23T05:53:13;1.88;;;1.20;;
36441;SDS011;73131;50.820;16.274;2024-02-23T05:56:16;1.70;;;1.20;;
36441;SDS011;73131;50.820;16.274;2024-02-23T05:59:17;1.10;;;0.77;;
36441;SDS011;73131;50.820;16.274;2024-02-23T06:02:18;1.67;;;1.05;;
36441;SDS011;73131;50.820;16.274;2024-02-23T06:05:19;1.90;;;0.82;;
36441;SDS011;73131;50.820;16.274;2024-02-23T06:08:20;3.72;;;1.30;;
36441;SDS011;73131;50.820;16.274;2024-02-23T06:11:21;2.30;;;1.17;;
36441;SDS011;73131;50.820;16.274;2024-02-23T06:14:22;1.75;;;0.93;;
36441;SDS011;73131;50.820;16.274;2024-02-23T06:17:23;1.45;;;0.98;;
36441;SDS011;73131;50.820;16.274;2024-02-23T06:20:25;1.83;;;1.20;;
36441;SDS011;73131;50.820;16.274;2024-02-23T06:23:30;1.85;;;0.90;;
36441;SDS011;73131;50.820;16.274;2024-02-23T06:26:32;1.65;;;1.10;;
36441;SDS011;73131;50.820;16.274;2024-02-23T06:29:35;1.25;;;0.85;;
36441;SDS011;73131;50.820;16.274;2024-02-23T06:32:38;1.33;;;0.60;;
36441;SDS011;73131;50.820;16.274;2024-02-23T06:35:39;2.00;;;1.00;;
36441;SDS011;73131;50.820;16.274;2024-02-23T06:38:40;2.30;;;0.80;;
36441;SDS011;73131;50.820;16.274;2024-02-23T06:41:41;1.70;;;1.10;;
36441;SDS011;73131;50.820;16.274;2024-02-23T06:44:45;1.08;;;0.70;;
36441;SDS011;73131;50.820;16.274;2024-02-23T06:47:46;1.55;;;0.80;;
36441;SDS011;73131;50.820;16.274;2024-02-23T06:50:47;1.63;;;1.10;;
36441;SDS011;73131;50.820;16.274;2024-02-23T06:53:49;3.58;;;1.30;;
36441;SDS011;73131;50.820;16.274;2024-02-23T06:56:50;1.90;;;1.27;;
36441;SDS011;73131;50.820;16.274;2024-02-23T06:59:53;3.22;;;1.83;;
36441;SDS011;73131;50.820;16.274;2024-02-23T07:02:55;2.53;;;1.40;;
36441;SDS011;73131;50.820;16.274;2024-02-23T07:05:59;2.10;;;1.90;;
36441;SDS011;73131;50.820;16.274;2024-02-23T07:09:00;3.05;;;1.90;;
36441;SDS011;73131;50.820;16.274;2024-02-23T07:12:01;3.45;;;1.98;;
36441;SDS011;73131;50.820;16.274;2024-02-23T07:15:05;3.45;;;2.22;;
36441;SDS011;73131;50.820;16.274;2024-02-23T07:18:06;3.90;;;2.40;;
36441;SDS011;73131;50.820;16.274;2024-02-23T07:21:09;3.35;;;1.75;;
36441;SDS011;73131;50.820;16.274;2024-02-23T07:24:13;3.13;;;2.20;;
36441;SDS011;73131;50.820;16.274;2024-02-23T07:27:14;2.42;;;1.60;;
36441;SDS011;73131;50.820;16.274;2024-02-23T07:30:15;2.75;;;1.80;;
36441;SDS011;73131;50.820;16.274;2024-02-23T07:33:19;4.75;;;1.90;;
36441;SDS011;73131;50.820;16.274;2024-02-23T07:36:22;3.17;;;1.40;;
36441;SDS011;73131;50.820;16.274;2024-02-23T07:39:24;2.35;;;1.80;;
36441;SDS011;73131;50.820;16.274;2024-02-23T07:42:30;3.78;;;1.40;;
36441;SDS011;73131;50.820;16.274;2024-02-23T07:45:37;3.47;;;1.35;;
36441;SDS011;73131;50.820;16.274;2024-02-23T07:48:38;2.42;;;1.63;;
36441;SDS011;73131;50.820;16.274;2024-02-23T07:51:39;4.07;;;2.47;;
36441;SDS011;73131;50.820;16.274;2024-02-23T07:54:40;2.90;;;2.10;;
36441;SDS011;73131;50.820;16.274;2024-02-23T07:57:44;5.03;;;2.00;;
36441;SDS011;73131;50.820;16.274;2024-02-23T08:00:47;3.60;;;1.50;;
36441;SDS011;73131;50.820;16.274;2024-02-23T08:03:48;2.90;;;1.55;;
36441;SDS011;73131;50.820;16.274;2024-02-23T08:06:49;2.65;;;1.40;;
36441;SDS011;73131;50.820;16.274;2024-02-23T08:09:51;3.20;;;1.45;;
36441;SDS011;73131;50.820;16.274;2024-02-23T08:12:52;3.25;;;1.63;;
36441;SDS011;73131;50.820;16.274;2024-02-23T08:15:53;3.33;;;1.60;;
36441;SDS011;73131;50.820;16.274;2024-02-23T08:18:54;2.70;;;1.30;;
36441;SDS011;73131;50.820;16.274;2024-02-23T08:21:57;3.53;;;1.50;;
36441;SDS011;73131;50.820;16.274;2024-02-23T08:24:58;3.15;;;1.45;;
36441;SDS011;73131;50.820;16.274;2024-02-23T08:28:01;7.60;;;4.25;;
36441;SDS011;73131;50.820;16.274;2024-02-23T08:31:03;3.33;;;1.90;;
36441;SDS011;73131;50.820;16.274;2024-02-23T08:34:06;4.65;;;1.98;;
36441;SDS011;73131;50.820;16.274;2024-02-23T08:37:07;3.22;;;1.70;;
36441;SDS011;73131;50.820;16.274;2024-02-23T08:40:09;3.53;;;2.05;;
36441;SDS011;73131;50.820;16.274;2024-02-23T08:43:13;2.83;;;1.40;;
36441;SDS011;73131;50.820;16.274;2024-02-23T08:46:16;3.47;;;1.90;;
36441;SDS011;73131;50.820;16.274;2024-02-23T08:49:19;5.38;;;1.70;;
36441;SDS011;73131;50.820;16.274;2024-02-23T08:52:21;3.05;;;1.83;;
36441;SDS011;73131;50.820;16.274;2024-02-23T08:55:22;2.65;;;1.52;;
36441;SDS011;73131;50.820;16.274;2024-02-23T08:58:25;2.00;;;1.30;;
36441;SDS011;73131;50.820;16.274;2024-02-23T09:01:26;4.05;;;1.42;;
36441;SDS011;73131;50.820;16.274;2024-02-23T09:04:27;4.13;;;1.70;;
36441;SDS011;73131;50.820;16.274;2024-02-23T09:07:33;2.33;;;1.30;;
36441;SDS011;73131;50.820;16.274;2024-02-23T09:10:39;2.63;;;1.50;;
36441;SDS011;73131;50.820;16.274;2024-02-23T09:13:45;2.85;;;1.60;;
36441;SDS011;73131;50.820;16.274;2024-02-23T09:16:47;3.05;;;1.58;;
36441;SDS011;73131;50.820;16.274;2024-02-23T09:19:50;2.88;;;1.50;;
36441;SDS011;73131;50.820;16.274;2024-02-23T09:22:52;2.67;;;1.38;;
36441;SDS011;73131;50.820;16.274;2024-02-23T09:25:53;2.50;;;1.30;;
36441;SDS011;73131;50.820;16.274;2024-02-23T09:28:54;1.67;;;1.30;;
36441;SDS011;73131;50.820;16.274;2024-02-23T09:31:57;3.95;;;1.60;;
36441;SDS011;73131;50.820;16.274;2024-02-23T09:34:59;2.45;;;1.38;;
36441;SDS011;73131;50.820;16.274;2024-02-23T09:41:08;2.08;;;1.52;;
36441;SDS011;73131;50.820;16.274;2024-02-23T09:44:22;2.38;;;1.20;;
36441;SDS011;73131;50.820;16.274;2024-02-23T09:47:24;1.70;;;1.55;;
36441;SDS011;73131;50.820;16.274;2024-02-23T09:50:28;1.67;;;0.98;;
36441;SDS011;73131;50.820;16.274;2024-02-23T09:53:33;1.58;;;1.08;;
36441;SDS011;73131;50.820;16.274;2024-02-23T09:56:38;2.25;;;1.27;;
36441;SDS011;73131;50.820;16.274;2024-02-23T09:59:39;3.55;;;1.42;;
36441;SDS011;73131;50.820;16.274;2024-02-23T10:02:42;3.22;;;1.33;;
36441;SDS011;73131;50.820;16.274;2024-02-23T10:05:43;1.63;;;0.95;;
36441;SDS011;73131;50.820;16.274;2024-02-23T10:08:48;2.53;;;1.33;;
36441;SDS011;73131;50.820;16.274;2024-02-23T10:11:52;2.08;;;1.00;;
36441;SDS011;73131;50.820;16.274;2024-02-23T10:14:56;4.38;;;1.73;;
36441;SDS011;73131;50.820;16.274;2024-02-23T10:18:04;3.50;;;1.60;;
36441;SDS011;73131;50.820;16.274;2024-02-23T10:21:10;3.35;;;1.75;;
36441;SDS011;73131;50.820;16.274;2024-02-23T10:24:15;4.28;;;1.63;;
36441;SDS011;73131;50.820;16.274;2024-02-23T10:27:22;2.70;;;1.45;;
36441;SDS011;73131;50.820;16.274;2024-02-23T10:30:29;4.05;;;1.67;;
36441;SDS011;73131;50.820;16.274;2024-02-23T10:33:35;2.90;;;1.73;;
36441;SDS011;73131;50.820;16.274;2024-02-23T10:36:42;3.03;;;1.52;;
36441;SDS011;73131;50.820;16.274;2024-02-23T10:39:47;3.83;;;1.85;;
36441;SDS011;73131;50.820;16.274;2024-02-23T10:42:55;5.72;;;2.53;;
36441;SDS011;73131;50.820;16.274;2024-02-23T10:46:02;5.95;;;2.80;;
36441;SDS011;73131;50.820;16.274;2024-02-23T10:49:08;5.25;;;2.75;;
36441;SDS011;73131;50.820;16.274;2024-02-23T10:52:13;7.68;;;2.88;;
36441;SDS011;73131;50.820;16.274;2024-02-23T10:55:19;2.45;;;1.52;;
36441;SDS011;73131;50.820;16.274;2024-02-23T10:58:21;3.15;;;1.75;;
36441;SDS011;73131;50.820;16.274;2024-02-23T11:01:23;3.25;;;1.70;;
36441;SDS011;73131;50.820;16.274;2024-02-23T11:04:32;2.22;;;1.40;;
36441;SDS011;73131;50.820;16.274;2024-02-23T11:07:39;3.25;;;1.60;;
36441;SDS011;73131;50.820;16.274;2024-02-23T11:10:43;2.42;;;1.35;;
36441;SDS011;73131;50.820;16.274;2024-02-23T11:13:53;4.18;;;1.83;;
36441;SDS011;73131;50.820;16.274;2024-02-23T11:16:57;3.70;;;1.80;;
36441;SDS011;73131;50.820;16.274;2024-02-23T11:20:04;4.97;;;1.73;;
36441;SDS011;73131;50.820;16.274;2024-02-23T11:23:14;2.45;;;1.60;;
36441;SDS011;73131;50.820;16.274;2024-02-23T11:26:18;3.85;;;1.77;;
36441;SDS011;73131;50.820;16.274;2024-02-23T11:29:19;4.32;;;2.20;;
36441;SDS011;73131;50.820;16.274;2024-02-23T11:32:24;5.15;;;2.65;;
36441;SDS011;73131;50.820;16.274;2024-02-23T11:35:48;4.80;;;2.40;;
36441;SDS011;73131;50.820;16.274;2024-02-23T11:38:53;3.13;;;1.30;;
36441;SDS011;73131;50.820;16.274;2024-02-23T11:41:57;3.28;;;1.80;;
36441;SDS011;73131;50.820;16.274;2024-02-23T11:45:00;6.35;;;2.65;;
36441;SDS011;73131;50.820;16.274;2024-02-23T11:48:04;4.20;;;2.53;;
36441;SDS011;73131;50.820;16.274;2024-02-23T11:54:07;3.58;;;1.88;;
36441;SDS011;73131;50.820;16.274;2024-02-23T11:57:09;3.85;;;2.03;;
36441;SDS011;73131;50.820;16.274;2024-02-23T12:00:10;5.72;;;3.22;;
36441;SDS011;73131;50.820;16.274;2024-02-23T12:03:15;5.32;;;2.75;;
36441;SDS011;73131;50.820;16.274;2024-02-23T12:06:18;6.38;;;2.90;;
36441;SDS011;73131;50.820;16.274;2024-02-23T12:09:29;7.50;;;3.35;;
36441;SDS011;73131;50.820;16.274;2024-02-23T12:12:30;8.27;;;3.35;;
36441;SDS011;73131;50.820;16.274;2024-02-23T12:15:34;6.82;;;2.78;;
36441;SDS011;73131;50.820;16.274;2024-02-23T12:18:38;5.97;;;3.10;;
36441;SDS011;73131;50.820;16.274;2024-02-23T12:21:44;3.70;;;2.47;;
36441;SDS011;73131;50.820;16.274;2024-02-23T12:24:45;4.57;;;2.15;;
36441;SDS011;73131;50.820;16.274;2024-02-23T12:27:47;2.30;;;1.50;;
36441;SDS011;73131;50.820;16.274;2024-02-23T12:31:01;4.25;;;2.53;;
36441;SDS011;73131;50.820;16.274;2024-02-23T12:34:13;4.32;;;2.10;;
36441;SDS011;73131;50.820;16.274;2024-02-23T12:37:16;4.90;;;2.10;;
36441;SDS011;73131;50.820;16.274;2024-02-23T12:40:19;5.28;;;2.42;;
36441;SDS011;73131;50.820;16.274;2024-02-23T12:43:23;3.47;;;2.05;;
36441;SDS011;73131;50.820;16.274;2024-02-23T12:46:30;3.58;;;1.58;;
36441;SDS011;73131;50.820;16.274;2024-02-23T12:49:36;3.60;;;1.50;;
36441;SDS011;73131;50.820;16.274;2024-02-23T12:52:39;3.65;;;2.25;;
36441;SDS011;73131;50.820;16.274;2024-02-23T12:55:43;3.33;;;1.77;;
36441;SDS011;73131;50.820;16.274;2024-02-23T12:58:46;12.57;;;7.47;;
36441;SDS011;73131;50.820;16.274;2024-02-23T13:01:47;6.15;;;2.13;;
36441;SDS011;73131;50.820;16.274;2024-02-23T13:04:48;3.45;;;2.10;;
36441;SDS011;73131;50.820;16.274;2024-02-23T13:07:54;4.45;;;2.38;;
36441;SDS011;73131;50.820;16.274;2024-02-23T13:10:58;3.33;;;2.10;;
36441;SDS011;73131;50.820;16.274;2024-02-23T13:14:17;2.88;;;1.70;;
36441;SDS011;73131;50.820;16.274;2024-02-23T13:17:21;5.00;;;2.33;;
36441;SDS011;73131;50.820;16.274;2024-02-23T13:20:24;3.38;;;2.00;;
36441;SDS011;73131;50.820;16.274;2024-02-23T13:23:33;5.18;;;2.08;;
36441;SDS011;73131;50.820;16.274;2024-02-23T13:26:41;5.35;;;2.22;;
36441;SDS011;73131;50.820;16.274;2024-02-23T13:29:42;3.67;;;1.90;;
36441;SDS011;73131;50.820;16.274;2024-02-23T13:32:46;4.43;;;2.20;;
36441;SDS011;73131;50.820;16.274;2024-02-23T13:35:46;3.92;;;2.13;;
36441;SDS011;73131;50.820;16.274;2024-02-23T13:38:48;4.28;;;1.73;;
36441;SDS011;73131;50.820;16.274;2024-02-23T13:41:50;4.40;;;2.20;;
36441;SDS011;73131;50.820;16.274;2024-02-23T13:44:51;6.07;;;2.80;;
36441;SDS011;73131;50.820;16.274;2024-02-23T13:48:00;7.93;;;2.72;;
36441;SDS011;73131;50.820;16.274;2024-02-23T13:51:03;6.18;;;2.70;;
36441;SDS011;73131;50.820;16.274;2024-02-23T13:54:06;3.63;;;2.60;;
36441;SDS011;73131;50.820;16.274;2024-02-23T13:57:10;4.13;;;2.15;;
36441;SDS011;73131;50.820;16.274;2024-02-23T14:00:11;6.57;;;3.17;;
36441;SDS011;73131;50.820;16.274;2024-02-23T14:03:21;4.72;;;2.53;;
36441;SDS011;73131;50.820;16.274;2024-02-23T14:06:23;6.25;;;2.83;;
36441;SDS011;73131;50.820;16.274;2024-02-23T14:09:26;3.75;;;2.00;;
36441;SDS011;73131;50.820;16.274;2024-02-23T14:12:30;5.53;;;2.92;;
36441;SDS011;73131;50.820;16.274;2024-02-23T14:15:31;5.18;;;3.35;;
36441;SDS011;73131;50.820;16.274;2024-02-23T14:18:34;6.47;;;3.10;;
36441;SDS011;73131;50.820;16.274;2024-02-23T14:21:38;8.70;;;3.92;;
36441;SDS011;73131;50.820;16.274;2024-02-23T14:24:38;6.25;;;2.85;;
36441;SDS011;73131;50.820;16.274;2024-02-23T14:27:42;3.92;;;2.22;;
36441;SDS011;73131;50.820;16.274;2024-02-23T14:30:43;4.43;;;2.35;;
36441;SDS011;73131;50.820;16.274;2024-02-23T14:33:44;4.93;;;2.50;;
36441;SDS011;73131;50.820;16.274;2024-02-23T14:36:51;3.88;;;2.35;;
36441;SDS011;73131;50.820;16.274;2024-02-23T14:39:57;5.18;;;2.70;;
36441;SDS011;73131;50.820;16.274;2024-02-23T14:43:03;6.05;;;3.50;;
36441;SDS011;73131;50.820;16.274;2024-02-23T14:46:05;6.93;;;3.13;;
36441;SDS011;73131;50.820;16.274;2024-02-23T14:49:09;5.32;;;3.08;;
36441;SDS011;73131;50.820;16.274;2024-02-23T14:52:11;5.13;;;2.80;;
36441;SDS011;73131;50.820;16.274;2024-02-23T14:55:12;4.95;;;3.30;;
36441;SDS011;73131;50.820;16.274;2024-02-23T14:58:14;6.28;;;3.15;;
36441;SDS011;73131;50.820;16.274;2024-02-23T15:01:17;7.38;;;3.55;;
36441;SDS011;73131;50.820;16.274;2024-02-23T15:04:31;9.52;;;3.78;;
36441;SDS011;73131;50.820;16.274;2024-02-23T15:07:32;7.47;;;3.42;;
36441;SDS011;73131;50.820;16.274;2024-02-23T15:10:34;8.55;;;3.80;;
36441;SDS011;73131;50.820;16.274;2024-02-23T15:13:35;7.88;;;4.07;;
36441;SDS011;73131;50.820;16.274;2024-02-23T15:16:36;9.95;;;4.28;;
36441;SDS011;73131;50.820;16.274;2024-02-23T15:19:37;6.85;;;2.80;;
36441;SDS011;73131;50.820;16.274;2024-02-23T15:22:43;6.22;;;3.60;;
36441;SDS011;73131;50.820;16.274;2024-02-23T15:25:50;9.70;;;4.22;;
36441;SDS011;73131;50.820;16.274;2024-02-23T15:28:55;7.38;;;4.10;;
36441;SDS011;73131;50.820;16.274;2024-02-23T15:31:58;7.20;;;3.88;;
36441;SDS011;73131;50.820;16.274;2024-02-23T15:34:59;8.40;;;4.50;;
36441;SDS011;73131;50.820;16.274;2024-02-23T15:38:03;9.20;;;3.70;;
36441;SDS011;73131;50.820;16.274;2024-02-23T15:41:06;7.78;;;3.33;;
36441;SDS011;73131;50.820;16.274;2024-02-23T15:44:13;8.18;;;3.20;;
36441;SDS011;73131;50.820;16.274;2024-02-23T15:47:14;7.65;;;3.25;;
36441;SDS011;73131;50.820;16.274;2024-02-23T15:50:15;6.60;;;3.53;;
36441;SDS011;73131;50.820;16.274;2024-02-23T15:53:20;2.72;;;1.58;;
36441;SDS011;73131;50.820;16.274;2024-02-23T15:56:24;4.28;;;1.90;;
36441;SDS011;73131;50.820;16.274;2024-02-23T15:59:30;4.28;;;1.90;;
36441;SDS011;73131;50.820;16.274;2024-02-23T16:02:31;3.33;;;1.63;;
36441;SDS011;73131;50.820;16.274;2024-02-23T16:05:32;4.25;;;2.17;;
36441;SDS011;73131;50.820;16.274;2024-02-23T16:11:45;5.47;;;2.45;;
36441;SDS011;73131;50.820;16.274;2024-02-23T16:14:47;6.70;;;1.90;;
36441;SDS011;73131;50.820;16.274;2024-02-23T16:17:53;4.85;;;2.17;;
36441;SDS011;73131;50.820;16.274;2024-02-23T16:20:55;5.35;;;2.47;;
36441;SDS011;73131;50.820;16.274;2024-02-23T16:24:05;7.60;;;3.20;;
36441;SDS011;73131;50.820;16.274;2024-02-23T16:27:06;5.22;;;2.63;;
36441;SDS011;73131;50.820;16.274;2024-02-23T16:30:11;6.30;;;3.13;;
36441;SDS011;73131;50.820;16.274;2024-02-23T16:33:13;7.88;;;3.97;;
36441;SDS011;73131;50.820;16.274;2024-02-23T16:36:15;6.80;;;4.18;;
36441;SDS011;73131;50.820;16.274;2024-02-23T16:39:25;5.85;;;3.25;;
36441;SDS011;73131;50.820;16.274;2024-02-23T16:42:34;7.03;;;3.08;;
36441;SDS011;73131;50.820;16.274;2024-02-23T16:45:35;6.32;;;2.75;;
36441;SDS011;73131;50.820;16.274;2024-02-23T16:48:36;5.60;;;2.85;;
36441;SDS011;73131;50.820;16.274;2024-02-23T16:51:45;8.23;;;4.57;;
36441;SDS011;73131;50.820;16.274;2024-02-23T16:54:51;11.95;;;5.88;;
36441;SDS011;73131;50.820;16.274;2024-02-23T16:57:54;11.75;;;7.72;;
36441;SDS011;73131;50.820;16.274;2024-02-23T17:01:01;14.93;;;8.10;;
36441;SDS011;73131;50.820;16.274;2024-02-23T17:04:05;11.90;;;7.07;;
36441;SDS011;73131;50.820;16.274;2024-02-23T17:07:09;14.20;;;7.18;;
36441;SDS011;73131;50.820;16.274;2024-02-23T17:10:15;11.43;;;7.25;;
36441;SDS011;73131;50.820;16.274;2024-02-23T17:13:16;11.68;;;6.20;;
36441;SDS011;73131;50.820;16.274;2024-02-23T17:16:17;13.60;;;7.63;;
36441;SDS011;73131;50.820;16.274;2024-02-23T17:19:19;13.13;;;7.55;;
36441;SDS011;73131;50.820;16.274;2024-02-23T17:22:23;17.25;;;9.40;;
36441;SDS011;73131;50.820;16.274;2024-02-23T17:25:30;13.63;;;7.68;;
36441;SDS011;73131;50.820;16.274;2024-02-23T17:28:32;14.25;;;7.85;;
36441;SDS011;73131;50.820;16.274;2024-02-23T17:31:38;11.73;;;7.18;;
36441;SDS011;73131;50.820;16.274;2024-02-23T17:34:41;12.73;;;7.72;;
36441;SDS011;73131;50.820;16.274;2024-02-23T17:37:45;11.35;;;7.13;;
36441;SDS011;73131;50.820;16.274;2024-02-23T17:40:50;13.05;;;6.82;;
36441;SDS011;73131;50.820;16.274;2024-02-23T17:43:53;11.60;;;6.90;;
36441;SDS011;73131;50.820;16.274;2024-02-23T17:46:54;12.50;;;6.93;;
36441;SDS011;73131;50.820;16.274;2024-02-23T17:49:58;11.93;;;5.47;;
36441;SDS011;73131;50.820;16.274;2024-02-23T17:53:02;14.40;;;7.72;;
36441;SDS011;73131;50.820;16.274;2024-02-23T17:56:09;7.93;;;4.90;;
36441;SDS011;73131;50.820;16.274;2024-02-23T17:59:10;9.70;;;5.25;;
36441;SDS011;73131;50.820;16.274;2024-02-23T18:02:14;6.85;;;4.35;;
36441;SDS011;73131;50.820;16.274;2024-02-23T18:05:15;9.15;;;4.47;;
36441;SDS011;73131;50.820;16.274;2024-02-23T18:08:18;7.18;;;3.95;;
36441;SDS011;73131;50.820;16.274;2024-02-23T18:11:29;6.65;;;3.53;;
36441;SDS011;73131;50.820;16.274;2024-02-23T18:14:32;6.15;;;3.03;;
36441;SDS011;73131;50.820;16.274;2024-02-23T18:17:36;7.85;;;3.33;;